sensor_id;sensor_type;location;lat;lon;timestamp;P1;durP1;ratioP1;P2;durP2;ratioP2
18443;SDS011;9350;53.176;8.194;2022-07-21T00:00:17;8.60;;;5.40;;
18443;SDS011;9350;53.176;8.194;2022-07-21T00:02:44;9.05;;;5.57;;
18443;SDS011;9350;53.176;8.194;2022-07-21T00:05:11;7.57;;;5.65;;
18443;SDS011;9350;53.176;8.194;2022-07-21T00:07:38;9.70;;;5.60;;
18443;SDS011;9350;53.176;8.194;2022-07-21T00:10:05;15.25;;;6.30;;
18443;SDS011;9350;53.176;8.194;2022-07-21T00:12:33;11.63;;;5.72;;
18443;SDS011;9350;53.176;8.194;2022-07-21T00:14:59;10.27;;;5.30;;
18443;SDS011;9350;53.176;8.194;2022-07-21T00:17:28;11.02;;;5.35;;
18443;SDS011;9350;53.176;8.194;2022-07-21T00:19:54;8.00;;;5.30;;
18443;SDS011;9350;53.176;8.194;2022-07-21T00:22:22;12.93;;;5.78;;
18443;SDS011;9350;53.176;8.194;2022-07-21T00:24:49;9.60;;;5.97;;
18443;SDS011;9350;53.176;8.194;2022-07-21T00:27:16;9.50;;;5.10;;
18443;SDS011;9350;53.176;8.194;2022-07-21T00:29:42;8.63;;;5.28;;
18443;SDS011;9350;53.176;8.194;2022-07-21T00:32:09;11.70;;;5.00;;
18443;SDS011;9350;53.176;8.194;2022-07-21T00:34:37;6.25;;;4.82;;
18443;SDS011;9350;53.176;8.194;2022-07-21T00:37:04;11.23;;;5.70;;
18443;SDS011;9350;53.176;8.194;2022-07-21T00:39:31;8.77;;;5.32;;
18443;SDS011;9350;53.176;8.194;2022-07-21T00:41:58;9.32;;;5.18;;
18443;SDS011;9350;53.176;8.194;2022-07-21T00:44:26;11.73;;;5.43;;
18443;SDS011;9350;53.176;8.194;2022-07-21T00:46:54;10.88;;;5.43;;
18443;SDS011;9350;53.176;8.194;2022-07-21T00:49:22;11.90;;;5.95;;
18443;SDS011;9350;53.176;8.194;2022-07-21T00:51:51;11.50;;;7.28;;
18443;SDS011;9350;53.176;8.194;2022-07-21T00:54:18;24.05;;;7.78;;
18443;SDS011;9350;53.176;8.194;2022-07-21T00:56:45;20.65;;;9.20;;
18443;SDS011;9350;53.176;8.194;2022-07-21T00:59:12;18.52;;;7.35;;
18443;SDS011;9350;53.176;8.194;2022-07-21T01:01:40;14.95;;;6.57;;
18443;SDS011;9350;53.176;8.194;2022-07-21T01:04:07;14.30;;;6.20;;
18443;SDS011;9350;53.176;8.194;2022-07-21T01:06:34;19.88;;;6.95;;
18443;SDS011;9350;53.176;8.194;2022-07-21T01:09:02;16.88;;;6.95;;
18443;SDS011;9350;53.176;8.194;2022-07-21T01:11:29;14.18;;;6.13;;
18443;SDS011;9350;53.176;8.194;2022-07-21T01:13:57;12.80;;;5.72;;
18443;SDS011;9350;53.176;8.194;2022-07-21T01:16:24;14.05;;;5.90;;
18443;SDS011;9350;53.176;8.194;2022-07-21T01:18:51;8.75;;;5.75;;
18443;SDS011;9350;53.176;8.194;2022-07-21T01:21:27;12.80;;;5.97;;
18443;SDS011;9350;53.176;8.194;2022-07-21T01:23:56;11.77;;;5.60;;
18443;SDS011;9350;53.176;8.194;2022-07-21T01:26:22;12.70;;;6.40;;
18443;SDS011;9350;53.176;8.194;2022-07-21T01:28:49;10.45;;;6.03;;
18443;SDS011;9350;53.176;8.194;2022-07-21T01:31:17;9.13;;;5.70;;
18443;SDS011;9350;53.176;8.194;2022-07-21T01:33:43;16.83;;;5.75;;
18443;SDS011;9350;53.176;8.194;2022-07-21T01:36:10;8.85;;;4.95;;
18443;SDS011;9350;53.176;8.194;2022-07-21T01:38:39;11.93;;;5.38;;
18443;SDS011;9350;53.176;8.194;2022-07-21T01:41:23;10.90;;;5.38;;
18443;SDS011;9350;53.176;8.194;2022-07-21T01:43:58;9.82;;;5.10;;
18443;SDS011;9350;53.176;8.194;2022-07-21T01:46:27;10.02;;;5.15;;
18443;SDS011;9350;53.176;8.194;2022-07-21T01:48:55;11.95;;;5.85;;
18443;SDS011;9350;53.176;8.194;2022-07-21T01:51:22;7.00;;;4.40;;
18443;SDS011;9350;53.176;8.194;2022-07-21T01:53:50;9.07;;;4.90;;
18443;SDS011;9350;53.176;8.194;2022-07-21T01:56:18;9.23;;;5.10;;
18443;SDS011;9350;53.176;8.194;2022-07-21T01:58:46;5.95;;;4.30;;
18443;SDS011;9350;53.176;8.194;2022-07-21T02:01:14;5.07;;;4.22;;
18443;SDS011;9350;53.176;8.194;2022-07-21T02:03:42;6.90;;;4.40;;
18443;SDS011;9350;53.176;8.194;2022-07-21T02:06:09;5.60;;;4.47;;
18443;SDS011;9350;53.176;8.194;2022-07-21T02:08:36;6.18;;;4.43;;
18443;SDS011;9350;53.176;8.194;2022-07-21T02:11:05;7.28;;;4.18;;
18443;SDS011;9350;53.176;8.194;2022-07-21T02:13:32;5.82;;;4.20;;
18443;SDS011;9350;53.176;8.194;2022-07-21T02:15:59;6.65;;;4.45;;
18443;SDS011;9350;53.176;8.194;2022-07-21T02:18:26;6.80;;;4.38;;
18443;SDS011;9350;53.176;8.194;2022-07-21T02:20:53;9.40;;;4.70;;
18443;SDS011;9350;53.176;8.194;2022-07-21T02:23:20;8.90;;;4.10;;
18443;SDS011;9350;53.176;8.194;2022-07-21T02:25:47;5.72;;;4.30;;
18443;SDS011;9350;53.176;8.194;2022-07-21T02:28:16;8.10;;;4.82;;
18443;SDS011;9350;53.176;8.194;2022-07-21T02:30:42;7.88;;;4.72;;
18443;SDS011;9350;53.176;8.194;2022-07-21T02:33:09;5.68;;;4.18;;
18443;SDS011;9350;53.176;8.194;2022-07-21T02:35:36;8.82;;;4.25;;
18443;SDS011;9350;53.176;8.194;2022-07-21T02:38:03;8.52;;;4.72;;
18443;SDS011;9350;53.176;8.194;2022-07-21T02:40:30;6.03;;;4.43;;
18443;SDS011;9350;53.176;8.194;2022-07-21T02:42:57;5.25;;;4.65;;
18443;SDS011;9350;53.176;8.194;2022-07-21T02:45:25;9.60;;;5.28;;
18443;SDS011;9350;53.176;8.194;2022-07-21T02:47:53;5.00;;;4.50;;
18443;SDS011;9350;53.176;8.194;2022-07-21T02:50:21;6.70;;;4.97;;
18443;SDS011;9350;53.176;8.194;2022-07-21T02:52:49;6.30;;;4.63;;
18443;SDS011;9350;53.176;8.194;2022-07-21T02:55:16;8.27;;;4.45;;
18443;SDS011;9350;53.176;8.194;2022-07-21T02:57:43;9.90;;;4.97;;
18443;SDS011;9350;53.176;8.194;2022-07-21T03:00:09;7.18;;;5.00;;
18443;SDS011;9350;53.176;8.194;2022-07-21T03:02:38;10.38;;;4.90;;
18443;SDS011;9350;53.176;8.194;2022-07-21T03:05:05;7.45;;;5.00;;
18443;SDS011;9350;53.176;8.194;2022-07-21T03:07:32;8.15;;;4.75;;
18443;SDS011;9350;53.176;8.194;2022-07-21T03:09:59;6.65;;;5.00;;
18443;SDS011;9350;53.176;8.194;2022-07-21T03:12:26;6.57;;;5.57;;
18443;SDS011;9350;53.176;8.194;2022-07-21T03:14:53;10.32;;;6.07;;
18443;SDS011;9350;53.176;8.194;2022-07-21T03:17:19;8.73;;;5.80;;
18443;SDS011;9350;53.176;8.194;2022-07-21T03:19:47;7.32;;;6.25;;
18443;SDS011;9350;53.176;8.194;2022-07-21T03:22:14;7.72;;;6.03;;
18443;SDS011;9350;53.176;8.194;2022-07-21T03:24:41;8.98;;;6.80;;
18443;SDS011;9350;53.176;8.194;2022-07-21T03:27:07;12.70;;;6.38;;
18443;SDS011;9350;53.176;8.194;2022-07-21T03:29:34;8.52;;;6.93;;
18443;SDS011;9350;53.176;8.194;2022-07-21T03:32:01;12.20;;;6.70;;
18443;SDS011;9350;53.176;8.194;2022-07-21T03:34:27;12.07;;;6.25;;
18443;SDS011;9350;53.176;8.194;2022-07-21T03:36:56;10.50;;;6.97;;
18443;SDS011;9350;53.176;8.194;2022-07-21T03:39:22;10.55;;;6.68;;
18443;SDS011;9350;53.176;8.194;2022-07-21T03:41:49;7.72;;;6.90;;
18443;SDS011;9350;53.176;8.194;2022-07-21T03:44:16;11.32;;;8.18;;
18443;SDS011;9350;53.176;8.194;2022-07-21T03:46:42;12.38;;;8.05;;
18443;SDS011;9350;53.176;8.194;2022-07-21T03:49:09;11.02;;;7.35;;
18443;SDS011;9350;53.176;8.194;2022-07-21T03:51:36;11.15;;;7.60;;
18443;SDS011;9350;53.176;8.194;2022-07-21T03:54:04;11.48;;;6.97;;
18443;SDS011;9350;53.176;8.194;2022-07-21T03:56:31;11.98;;;7.55;;
18443;SDS011;9350;53.176;8.194;2022-07-21T03:58:57;14.30;;;7.45;;
18443;SDS011;9350;53.176;8.194;2022-07-21T04:01:24;13.38;;;8.30;;
18443;SDS011;9350;53.176;8.194;2022-07-21T04:03:51;12.35;;;7.88;;
18443;SDS011;9350;53.176;8.194;2022-07-21T04:06:18;11.57;;;7.97;;
18443;SDS011;9350;53.176;8.194;2022-07-21T04:08:44;13.13;;;8.35;;
18443;SDS011;9350;53.176;8.194;2022-07-21T04:11:12;13.48;;;8.30;;
18443;SDS011;9350;53.176;8.194;2022-07-21T04:13:39;15.43;;;8.80;;
18443;SDS011;9350;53.176;8.194;2022-07-21T04:16:06;12.50;;;8.52;;
18443;SDS011;9350;53.176;8.194;2022-07-21T04:18:33;13.43;;;8.75;;
18443;SDS011;9350;53.176;8.194;2022-07-21T04:21:00;15.32;;;8.45;;
18443;SDS011;9350;53.176;8.194;2022-07-21T04:23:26;10.68;;;8.35;;
18443;SDS011;9350;53.176;8.194;2022-07-21T04:25:54;13.43;;;8.88;;
18443;SDS011;9350;53.176;8.194;2022-07-21T04:28:22;15.35;;;8.50;;
18443;SDS011;9350;53.176;8.194;2022-07-21T04:30:49;15.40;;;9.65;;
18443;SDS011;9350;53.176;8.194;2022-07-21T04:33:16;13.52;;;9.27;;
18443;SDS011;9350;53.176;8.194;2022-07-21T04:35:42;12.65;;;8.30;;
18443;SDS011;9350;53.176;8.194;2022-07-21T04:38:09;15.73;;;10.10;;
18443;SDS011;9350;53.176;8.194;2022-07-21T04:40:36;14.82;;;9.55;;
18443;SDS011;9350;53.176;8.194;2022-07-21T04:43:03;14.90;;;9.32;;
18443;SDS011;9350;53.176;8.194;2022-07-21T04:45:31;15.55;;;10.45;;
18443;SDS011;9350;53.176;8.194;2022-07-21T04:47:58;19.25;;;10.48;;
18443;SDS011;9350;53.176;8.194;2022-07-21T04:50:26;16.08;;;10.55;;
18443;SDS011;9350;53.176;8.194;2022-07-21T04:52:54;16.10;;;10.13;;
18443;SDS011;9350;53.176;8.194;2022-07-21T04:55:21;15.75;;;10.05;;
18443;SDS011;9350;53.176;8.194;2022-07-21T04:57:48;12.65;;;10.38;;
18443;SDS011;9350;53.176;8.194;2022-07-21T05:00:18;15.02;;;10.63;;
18443;SDS011;9350;53.176;8.194;2022-07-21T05:02:49;14.82;;;10.40;;
18443;SDS011;9350;53.176;8.194;2022-07-21T05:05:17;18.13;;;11.73;;
18443;SDS011;9350;53.176;8.194;2022-07-21T05:07:44;16.30;;;11.75;;
18443;SDS011;9350;53.176;8.194;2022-07-21T05:10:12;18.38;;;11.77;;
18443;SDS011;9350;53.176;8.194;2022-07-21T05:12:41;17.40;;;12.18;;
18443;SDS011;9350;53.176;8.194;2022-07-21T05:15:08;19.15;;;11.52;;
18443;SDS011;9350;53.176;8.194;2022-07-21T05:17:36;17.60;;;12.55;;
18443;SDS011;9350;53.176;8.194;2022-07-21T05:20:05;18.77;;;12.32;;
18443;SDS011;9350;53.176;8.194;2022-07-21T05:22:32;21.50;;;12.77;;
18443;SDS011;9350;53.176;8.194;2022-07-21T05:24:59;18.63;;;13.15;;
18443;SDS011;9350;53.176;8.194;2022-07-21T05:27:26;21.38;;;13.95;;
18443;SDS011;9350;53.176;8.194;2022-07-21T05:29:52;22.65;;;12.80;;
18443;SDS011;9350;53.176;8.194;2022-07-21T05:32:19;19.95;;;13.05;;
18443;SDS011;9350;53.176;8.194;2022-07-21T05:34:46;19.90;;;13.70;;
18443;SDS011;9350;53.176;8.194;2022-07-21T05:37:14;20.15;;;13.63;;
18443;SDS011;9350;53.176;8.194;2022-07-21T05:39:41;23.08;;;14.15;;
18443;SDS011;9350;53.176;8.194;2022-07-21T05:42:08;19.98;;;13.98;;
18443;SDS011;9350;53.176;8.194;2022-07-21T05:44:34;22.67;;;14.45;;
18443;SDS011;9350;53.176;8.194;2022-07-21T05:47:01;21.73;;;14.15;;
18443;SDS011;9350;53.176;8.194;2022-07-21T05:49:28;21.27;;;14.45;;
18443;SDS011;9350;53.176;8.194;2022-07-21T05:51:55;20.17;;;13.38;;
18443;SDS011;9350;53.176;8.194;2022-07-21T05:54:23;19.27;;;14.80;;
18443;SDS011;9350;53.176;8.194;2022-07-21T05:56:50;21.27;;;15.70;;
18443;SDS011;9350;53.176;8.194;2022-07-21T05:59:16;23.80;;;13.95;;
18443;SDS011;9350;53.176;8.194;2022-07-21T06:01:43;19.60;;;14.63;;
18443;SDS011;9350;53.176;8.194;2022-07-21T06:04:10;19.23;;;14.65;;
18443;SDS011;9350;53.176;8.194;2022-07-21T06:06:38;20.27;;;14.15;;
18443;SDS011;9350;53.176;8.194;2022-07-21T06:09:04;20.77;;;14.60;;
18443;SDS011;9350;53.176;8.194;2022-07-21T06:11:32;21.73;;;14.93;;
18443;SDS011;9350;53.176;8.194;2022-07-21T06:13:59;21.23;;;15.15;;
18443;SDS011;9350;53.176;8.194;2022-07-21T06:16:26;23.17;;;15.55;;
18443;SDS011;9350;53.176;8.194;2022-07-21T06:18:53;21.83;;;16.00;;
18443;SDS011;9350;53.176;8.194;2022-07-21T06:21:19;23.38;;;15.82;;
18443;SDS011;9350;53.176;8.194;2022-07-21T06:23:46;25.77;;;17.42;;
18443;SDS011;9350;53.176;8.194;2022-07-21T06:26:13;26.05;;;16.48;;
18443;SDS011;9350;53.176;8.194;2022-07-21T06:28:41;25.58;;;16.80;;
18443;SDS011;9350;53.176;8.194;2022-07-21T06:31:08;24.27;;;17.48;;
18443;SDS011;9350;53.176;8.194;2022-07-21T06:33:34;26.35;;;17.25;;
18443;SDS011;9350;53.176;8.194;2022-07-21T06:36:01;23.05;;;16.40;;
18443;SDS011;9350;53.176;8.194;2022-07-21T06:38:28;23.60;;;16.20;;
18443;SDS011;9350;53.176;8.194;2022-07-21T06:40:55;22.65;;;16.13;;
18443;SDS011;9350;53.176;8.194;2022-07-21T06:43:21;24.58;;;15.65;;
18443;SDS011;9350;53.176;8.194;2022-07-21T06:45:49;23.40;;;17.10;;
18443;SDS011;9350;53.176;8.194;2022-07-21T06:48:16;20.48;;;15.30;;
18443;SDS011;9350;53.176;8.194;2022-07-21T06:50:43;29.55;;;16.70;;
18443;SDS011;9350;53.176;8.194;2022-07-21T06:53:10;23.92;;;15.88;;
18443;SDS011;9350;53.176;8.194;2022-07-21T06:55:36;22.50;;;16.23;;
18443;SDS011;9350;53.176;8.194;2022-07-21T06:58:10;26.95;;;17.27;;
18443;SDS011;9350;53.176;8.194;2022-07-21T07:00:38;24.27;;;15.90;;
18443;SDS011;9350;53.176;8.194;2022-07-21T07:03:06;24.58;;;16.38;;
18443;SDS011;9350;53.176;8.194;2022-07-21T07:05:33;25.90;;;16.65;;
18443;SDS011;9350;53.176;8.194;2022-07-21T07:08:00;25.80;;;16.27;;
18443;SDS011;9350;53.176;8.194;2022-07-21T07:10:27;24.27;;;16.40;;
18443;SDS011;9350;53.176;8.194;2022-07-21T07:12:54;25.23;;;17.33;;
18443;SDS011;9350;53.176;8.194;2022-07-21T07:15:21;24.77;;;16.55;;
18443;SDS011;9350;53.176;8.194;2022-07-21T07:17:49;22.88;;;16.77;;
18443;SDS011;9350;53.176;8.194;2022-07-21T07:20:17;22.23;;;16.17;;
18443;SDS011;9350;53.176;8.194;2022-07-21T07:22:44;21.20;;;16.67;;
18443;SDS011;9350;53.176;8.194;2022-07-21T07:25:10;25.05;;;17.17;;
18443;SDS011;9350;53.176;8.194;2022-07-21T07:27:41;23.13;;;16.90;;
18443;SDS011;9350;53.176;8.194;2022-07-21T07:30:08;23.83;;;16.25;;
18443;SDS011;9350;53.176;8.194;2022-07-21T07:32:36;24.45;;;16.95;;
18443;SDS011;9350;53.176;8.194;2022-07-21T07:35:03;19.63;;;15.85;;
18443;SDS011;9350;53.176;8.194;2022-07-21T07:37:31;28.38;;;15.52;;
18443;SDS011;9350;53.176;8.194;2022-07-21T07:39:59;22.60;;;15.93;;
18443;SDS011;9350;53.176;8.194;2022-07-21T07:42:26;19.42;;;14.95;;
18443;SDS011;9350;53.176;8.194;2022-07-21T07:44:53;21.27;;;15.27;;
18443;SDS011;9350;53.176;8.194;2022-07-21T07:47:19;19.33;;;14.10;;
18443;SDS011;9350;53.176;8.194;2022-07-21T07:49:46;21.05;;;14.70;;
18443;SDS011;9350;53.176;8.194;2022-07-21T07:52:15;19.70;;;14.68;;
18443;SDS011;9350;53.176;8.194;2022-07-21T07:54:43;17.67;;;14.65;;
18443;SDS011;9350;53.176;8.194;2022-07-21T07:57:10;16.83;;;14.13;;
18443;SDS011;9350;53.176;8.194;2022-07-21T07:59:37;21.42;;;14.35;;
18443;SDS011;9350;53.176;8.194;2022-07-21T08:02:04;18.90;;;14.10;;
18443;SDS011;9350;53.176;8.194;2022-07-21T08:04:30;16.98;;;14.40;;
18443;SDS011;9350;53.176;8.194;2022-07-21T08:06:57;22.02;;;15.60;;
18443;SDS011;9350;53.176;8.194;2022-07-21T08:09:24;20.98;;;14.57;;
18443;SDS011;9350;53.176;8.194;2022-07-21T08:11:52;17.55;;;14.20;;
18443;SDS011;9350;53.176;8.194;2022-07-21T08:14:18;17.73;;;13.70;;
18443;SDS011;9350;53.176;8.194;2022-07-21T08:16:45;19.90;;;14.40;;
18443;SDS011;9350;53.176;8.194;2022-07-21T08:19:12;19.75;;;13.48;;
18443;SDS011;9350;53.176;8.194;2022-07-21T08:21:39;16.63;;;13.65;;
18443;SDS011;9350;53.176;8.194;2022-07-21T08:24:06;16.95;;;12.52;;
18443;SDS011;9350;53.176;8.194;2022-07-21T08:26:33;15.75;;;12.38;;
18443;SDS011;9350;53.176;8.194;2022-07-21T08:29:01;14.18;;;12.00;;
18443;SDS011;9350;53.176;8.194;2022-07-21T08:31:28;13.43;;;11.45;;
18443;SDS011;9350;53.176;8.194;2022-07-21T08:33:54;12.73;;;11.15;;
18443;SDS011;9350;53.176;8.194;2022-07-21T08:36:21;12.68;;;11.13;;
18443;SDS011;9350;53.176;8.194;2022-07-21T08:38:48;14.52;;;11.35;;
18443;SDS011;9350;53.176;8.194;2022-07-21T08:41:14;14.43;;;11.90;;
18443;SDS011;9350;53.176;8.194;2022-07-21T08:43:41;14.18;;;11.15;;
18443;SDS011;9350;53.176;8.194;2022-07-21T08:46:10;11.70;;;10.50;;
18443;SDS011;9350;53.176;8.194;2022-07-21T08:48:37;12.45;;;10.15;;
18443;SDS011;9350;53.176;8.194;2022-07-21T08:51:04;14.43;;;10.80;;
18443;SDS011;9350;53.176;8.194;2022-07-21T08:53:31;11.63;;;10.23;;
18443;SDS011;9350;53.176;8.194;2022-07-21T08:55:58;11.70;;;10.30;;
18443;SDS011;9350;53.176;8.194;2022-07-21T08:58:25;11.65;;;10.45;;
18443;SDS011;9350;53.176;8.194;2022-07-21T09:00:52;12.25;;;10.32;;
18443;SDS011;9350;53.176;8.194;2022-07-21T09:03:22;12.05;;;9.80;;
18443;SDS011;9350;53.176;8.194;2022-07-21T09:06:00;11.82;;;10.70;;
18443;SDS011;9350;53.176;8.194;2022-07-21T09:08:33;11.88;;;10.65;;
18443;SDS011;9350;53.176;8.194;2022-07-21T09:11:08;12.98;;;10.80;;
18443;SDS011;9350;53.176;8.194;2022-07-21T09:13:35;14.98;;;11.88;;
18443;SDS011;9350;53.176;8.194;2022-07-21T09:16:02;15.00;;;10.85;;
18443;SDS011;9350;53.176;8.194;2022-07-21T09:18:30;13.27;;;10.77;;
18443;SDS011;9350;53.176;8.194;2022-07-21T09:20:57;13.00;;;10.32;;
18443;SDS011;9350;53.176;8.194;2022-07-21T09:23:25;11.93;;;10.77;;
18443;SDS011;9350;53.176;8.194;2022-07-21T09:25:52;11.88;;;10.68;;
18443;SDS011;9350;53.176;8.194;2022-07-21T09:28:21;16.45;;;10.75;;
18443;SDS011;9350;53.176;8.194;2022-07-21T09:30:50;14.63;;;11.63;;
18443;SDS011;9350;53.176;8.194;2022-07-21T09:33:25;11.85;;;10.27;;
18443;SDS011;9350;53.176;8.194;2022-07-21T09:36:02;13.68;;;10.93;;
18443;SDS011;9350;53.176;8.194;2022-07-21T09:38:33;11.63;;;10.35;;
18443;SDS011;9350;53.176;8.194;2022-07-21T09:41:09;11.55;;;10.35;;
18443;SDS011;9350;53.176;8.194;2022-07-21T09:43:38;12.43;;;10.75;;
18443;SDS011;9350;53.176;8.194;2022-07-21T09:46:13;12.25;;;10.07;;
18443;SDS011;9350;53.176;8.194;2022-07-21T09:48:42;14.88;;;12.27;;
18443;SDS011;9350;53.176;8.194;2022-07-21T09:54:06;14.57;;;11.48;;
18443;SDS011;9350;53.176;8.194;2022-07-21T09:56:34;11.98;;;10.70;;
18443;SDS011;9350;53.176;8.194;2022-07-21T09:59:03;12.88;;;11.15;;
18443;SDS011;9350;53.176;8.194;2022-07-21T10:01:30;13.02;;;10.57;;
18443;SDS011;9350;53.176;8.194;2022-07-21T10:03:58;14.02;;;10.00;;
18443;SDS011;9350;53.176;8.194;2022-07-21T10:06:26;10.65;;;9.52;;
18443;SDS011;9350;53.176;8.194;2022-07-21T10:08:57;11.38;;;10.20;;
18443;SDS011;9350;53.176;8.194;2022-07-21T10:11:25;12.27;;;10.95;;
18443;SDS011;9350;53.176;8.194;2022-07-21T10:13:53;13.85;;;10.55;;
18443;SDS011;9350;53.176;8.194;2022-07-21T10:16:20;12.52;;;11.20;;
18443;SDS011;9350;53.176;8.194;2022-07-21T10:18:52;16.35;;;11.30;;
18443;SDS011;9350;53.176;8.194;2022-07-21T10:21:27;14.02;;;11.95;;
18443;SDS011;9350;53.176;8.194;2022-07-21T10:24:02;14.57;;;11.70;;
18443;SDS011;9350;53.176;8.194;2022-07-21T10:26:30;14.15;;;12.07;;
18443;SDS011;9350;53.176;8.194;2022-07-21T10:28:57;11.88;;;10.68;;
18443;SDS011;9350;53.176;8.194;2022-07-21T10:31:24;12.95;;;11.15;;
18443;SDS011;9350;53.176;8.194;2022-07-21T10:33:59;12.48;;;10.90;;
18443;SDS011;9350;53.176;8.194;2022-07-21T10:39:26;10.60;;;9.50;;
18443;SDS011;9350;53.176;8.194;2022-07-21T10:41:54;11.32;;;10.13;;
18443;SDS011;9350;53.176;8.194;2022-07-21T10:44:42;14.93;;;11.13;;
18443;SDS011;9350;53.176;8.194;2022-07-21T10:47:13;13.88;;;10.00;;
18443;SDS011;9350;53.176;8.194;2022-07-21T10:49:53;13.93;;;10.63;;
18443;SDS011;9350;53.176;8.194;2022-07-21T10:55:36;14.48;;;10.00;;
18443;SDS011;9350;53.176;8.194;2022-07-21T10:58:16;10.77;;;9.65;;
18443;SDS011;9350;53.176;8.194;2022-07-21T11:00:50;12.15;;;9.02;;
18443;SDS011;9350;53.176;8.194;2022-07-21T11:03:19;12.07;;;8.57;;
18443;SDS011;9350;53.176;8.194;2022-07-21T11:08:42;10.02;;;7.43;;
18443;SDS011;9350;53.176;8.194;2022-07-21T11:11:12;8.23;;;7.40;;
18443;SDS011;9350;53.176;8.194;2022-07-21T11:13:57;7.90;;;6.93;;
18443;SDS011;9350;53.176;8.194;2022-07-21T11:19:26;8.63;;;7.72;;
18443;SDS011;9350;53.176;8.194;2022-07-21T11:21:55;8.25;;;7.18;;
18443;SDS011;9350;53.176;8.194;2022-07-21T11:24:24;11.35;;;7.22;;
18443;SDS011;9350;53.176;8.194;2022-07-21T11:26:57;11.00;;;8.30;;
18443;SDS011;9350;53.176;8.194;2022-07-21T11:29:27;9.77;;;8.45;;
18443;SDS011;9350;53.176;8.194;2022-07-21T11:31:55;9.60;;;8.05;;
18443;SDS011;9350;53.176;8.194;2022-07-21T11:34:23;9.95;;;8.57;;
18443;SDS011;9350;53.176;8.194;2022-07-21T11:36:57;9.70;;;8.35;;
18443;SDS011;9350;53.176;8.194;2022-07-21T11:39:25;10.18;;;8.63;;
18443;SDS011;9350;53.176;8.194;2022-07-21T11:41:52;12.10;;;8.60;;
18443;SDS011;9350;53.176;8.194;2022-07-21T11:44:23;9.18;;;8.00;;
18443;SDS011;9350;53.176;8.194;2022-07-21T11:46:51;9.45;;;8.45;;
18443;SDS011;9350;53.176;8.194;2022-07-21T11:49:19;12.13;;;9.07;;
18443;SDS011;9350;53.176;8.194;2022-07-21T11:51:47;10.00;;;8.55;;
18443;SDS011;9350;53.176;8.194;2022-07-21T11:54:19;11.70;;;8.82;;
18443;SDS011;9350;53.176;8.194;2022-07-21T11:56:50;9.35;;;8.40;;
18443;SDS011;9350;53.176;8.194;2022-07-21T11:59:19;10.82;;;9.25;;
18443;SDS011;9350;53.176;8.194;2022-07-21T12:01:51;12.48;;;9.93;;
18443;SDS011;9350;53.176;8.194;2022-07-21T12:04:25;10.95;;;9.43;;
18443;SDS011;9350;53.176;8.194;2022-07-21T12:06:53;9.95;;;8.95;;
18443;SDS011;9350;53.176;8.194;2022-07-21T12:09:20;14.75;;;8.68;;
18443;SDS011;9350;53.176;8.194;2022-07-21T12:11:47;10.75;;;9.63;;
18443;SDS011;9350;53.176;8.194;2022-07-21T12:14:14;12.52;;;10.32;;
18443;SDS011;9350;53.176;8.194;2022-07-21T12:16:46;14.45;;;9.73;;
18443;SDS011;9350;53.176;8.194;2022-07-21T12:19:16;12.55;;;10.43;;
18443;SDS011;9350;53.176;8.194;2022-07-21T12:21:46;10.65;;;9.55;;
18443;SDS011;9350;53.176;8.194;2022-07-21T12:24:15;14.27;;;10.20;;
18443;SDS011;9350;53.176;8.194;2022-07-21T12:26:42;10.75;;;9.63;;
18443;SDS011;9350;53.176;8.194;2022-07-21T12:29:09;12.20;;;9.27;;
18443;SDS011;9350;53.176;8.194;2022-07-21T12:31:36;11.25;;;9.55;;
18443;SDS011;9350;53.176;8.194;2022-07-21T12:34:10;13.55;;;10.07;;
18443;SDS011;9350;53.176;8.194;2022-07-21T12:36:40;11.93;;;9.48;;
18443;SDS011;9350;53.176;8.194;2022-07-21T12:39:15;10.68;;;9.23;;
18443;SDS011;9350;53.176;8.194;2022-07-21T12:42:05;9.35;;;8.50;;
18443;SDS011;9350;53.176;8.194;2022-07-21T12:44:33;10.32;;;9.23;;
18443;SDS011;9350;53.176;8.194;2022-07-21T12:47:12;14.48;;;9.00;;
18443;SDS011;9350;53.176;8.194;2022-07-21T12:49:53;12.68;;;10.10;;
18443;SDS011;9350;53.176;8.194;2022-07-21T12:52:25;12.07;;;10.88;;
18443;SDS011;9350;53.176;8.194;2022-07-21T12:54:53;12.23;;;10.65;;
18443;SDS011;9350;53.176;8.194;2022-07-21T12:57:20;10.48;;;9.35;;
18443;SDS011;9350;53.176;8.194;2022-07-21T12:59:47;12.15;;;10.43;;
18443;SDS011;9350;53.176;8.194;2022-07-21T13:02:13;13.27;;;10.95;;
18443;SDS011;9350;53.176;8.194;2022-07-21T13:04:40;11.00;;;9.07;;
18443;SDS011;9350;53.176;8.194;2022-07-21T13:07:07;9.90;;;9.00;;
18443;SDS011;9350;53.176;8.194;2022-07-21T13:09:35;9.70;;;8.75;;
18443;SDS011;9350;53.176;8.194;2022-07-21T13:12:02;9.68;;;8.68;;
18443;SDS011;9350;53.176;8.194;2022-07-21T13:14:30;10.27;;;8.77;;
18443;SDS011;9350;53.176;8.194;2022-07-21T13:16:57;11.77;;;10.13;;
18443;SDS011;9350;53.176;8.194;2022-07-21T13:19:24;10.88;;;8.68;;
18443;SDS011;9350;53.176;8.194;2022-07-21T13:21:51;10.70;;;8.43;;
18443;SDS011;9350;53.176;8.194;2022-07-21T13:24:18;8.82;;;7.93;;
18443;SDS011;9350;53.176;8.194;2022-07-21T13:26:46;10.32;;;8.25;;
18443;SDS011;9350;53.176;8.194;2022-07-21T13:29:13;15.90;;;9.43;;
18443;SDS011;9350;53.176;8.194;2022-07-21T13:31:40;10.05;;;8.98;;
18443;SDS011;9350;53.176;8.194;2022-07-21T13:34:07;11.60;;;9.35;;
18443;SDS011;9350;53.176;8.194;2022-07-21T13:36:34;11.43;;;9.18;;
18443;SDS011;9350;53.176;8.194;2022-07-21T13:39:01;10.07;;;8.98;;
18443;SDS011;9350;53.176;8.194;2022-07-21T13:41:29;13.15;;;7.97;;
18443;SDS011;9350;53.176;8.194;2022-07-21T13:43:58;8.05;;;7.00;;
18443;SDS011;9350;53.176;8.194;2022-07-21T13:46:25;8.10;;;6.82;;
18443;SDS011;9350;53.176;8.194;2022-07-21T13:48:52;7.05;;;6.20;;
18443;SDS011;9350;53.176;8.194;2022-07-21T13:51:20;6.68;;;6.07;;
18443;SDS011;9350;53.176;8.194;2022-07-21T13:53:48;7.50;;;6.45;;
18443;SDS011;9350;53.176;8.194;2022-07-21T13:56:15;7.15;;;6.45;;
18443;SDS011;9350;53.176;8.194;2022-07-21T13:58:42;6.85;;;6.22;;
18443;SDS011;9350;53.176;8.194;2022-07-21T14:01:11;8.25;;;7.32;;
18443;SDS011;9350;53.176;8.194;2022-07-21T14:03:41;9.82;;;7.28;;
18443;SDS011;9350;53.176;8.194;2022-07-21T14:06:09;10.32;;;7.25;;
18443;SDS011;9350;53.176;8.194;2022-07-21T14:08:36;9.27;;;7.82;;
18443;SDS011;9350;53.176;8.194;2022-07-21T14:11:03;7.55;;;6.85;;
18443;SDS011;9350;53.176;8.194;2022-07-21T14:13:31;10.90;;;8.82;;
18443;SDS011;9350;53.176;8.194;2022-07-21T14:15:57;12.32;;;9.48;;
18443;SDS011;9350;53.176;8.194;2022-07-21T14:18:25;13.38;;;9.55;;
18443;SDS011;9350;53.176;8.194;2022-07-21T14:20:52;12.18;;;10.10;;
18443;SDS011;9350;53.176;8.194;2022-07-21T14:23:19;15.35;;;11.10;;
18443;SDS011;9350;53.176;8.194;2022-07-21T14:25:46;11.45;;;10.25;;
18443;SDS011;9350;53.176;8.194;2022-07-21T14:28:13;13.65;;;10.32;;
18443;SDS011;9350;53.176;8.194;2022-07-21T14:30:39;13.65;;;10.55;;
18443;SDS011;9350;53.176;8.194;2022-07-21T14:33:07;13.40;;;10.90;;
18443;SDS011;9350;53.176;8.194;2022-07-21T14:35:35;13.50;;;10.95;;
18443;SDS011;9350;53.176;8.194;2022-07-21T14:38:02;13.52;;;11.30;;
18443;SDS011;9350;53.176;8.194;2022-07-21T14:40:29;17.10;;;11.50;;
18443;SDS011;9350;53.176;8.194;2022-07-21T14:42:56;14.40;;;11.95;;
18443;SDS011;9350;53.176;8.194;2022-07-21T14:45:23;16.38;;;12.45;;
18443;SDS011;9350;53.176;8.194;2022-07-21T14:47:50;18.58;;;12.23;;
18443;SDS011;9350;53.176;8.194;2022-07-21T14:50:18;21.85;;;13.35;;
18443;SDS011;9350;53.176;8.194;2022-07-21T14:52:47;18.42;;;13.43;;
18443;SDS011;9350;53.176;8.194;2022-07-21T14:55:14;15.85;;;12.80;;
18443;SDS011;9350;53.176;8.194;2022-07-21T14:57:40;19.15;;;13.23;;
18443;SDS011;9350;53.176;8.194;2022-07-21T15:00:08;18.55;;;12.95;;
18443;SDS011;9350;53.176;8.194;2022-07-21T15:02:35;15.93;;;13.10;;